createdAt,value
2018-09-23T00:02:09.740Z,100362.40
2018-09-23T00:07:13.026Z,100357.72
2018-09-23T00:12:16.293Z,100358.22
2018-09-23T00:17:19.585Z,100353.55
2018-09-23T00:22:23.128Z,100337.19
2018-09-23T00:27:26.466Z,100315.05
2018-09-23T00:32:29.821Z,100330.05
2018-09-23T00:37:33.119Z,100339.44
2018-09-23T00:42:36.407Z,100338.05
2018-09-23T00:47:39.679Z,100334.30
2018-09-23T00:52:42.955Z,100320.73
2018-09-23T00:57:46.226Z,100321.95
2018-09-23T01:02:49.742Z,100328.55
2018-09-23T01:07:53.496Z,100323.16
2018-09-23T01:12:56.777Z,100317.41
2018-09-23T01:18:00.063Z,100312.63
2018-09-23T01:23:03.355Z,100308.27
2018-09-23T01:28:06.630Z,100308.91
2018-09-23T01:33:09.909Z,100297.13
2018-09-23T01:38:13.270Z,100295.13
2018-09-23T01:43:16.554Z,100276.09
2018-09-23T01:48:19.882Z,100265.73
2018-09-23T01:53:23.167Z,100267.39
2018-09-23T01:58:26.438Z,100272.95
2018-09-23T02:03:29.741Z,100262.60
2018-09-23T02:08:33.023Z,100280.87
2018-09-23T02:13:36.319Z,100274.95
2018-09-23T02:18:39.599Z,100274.00
2018-09-23T02:23:42.975Z,100268.17
2018-09-23T02:28:46.257Z,100252.50
2018-09-23T02:33:49.538Z,100250.77
2018-09-23T02:38:52.811Z,100250.50
2018-09-23T02:43:56.118Z,100236.05
2018-09-23T02:48:59.407Z,100228.66
2018-09-23T02:54:02.690Z,100220.73
2018-09-23T02:59:05.980Z,100227.55
2018-09-23T03:04:09.262Z,100226.91
2018-09-23T03:09:12.550Z,100214.38
2018-09-23T03:14:15.843Z,100210.20
2018-09-23T03:19:19.114Z,100210.37
2018-09-23T03:24:22.394Z,100217.45
2018-09-23T03:29:25.678Z,100208.31
2018-09-23T03:34:28.963Z,100190.39
2018-09-23T03:39:32.243Z,100174.64
2018-09-23T03:44:35.527Z,100184.64
2018-09-23T03:49:38.856Z,100192.66
2018-09-23T03:54:42.146Z,100191.61
2018-09-23T03:59:45.434Z,100175.69
2018-09-23T04:04:48.714Z,100167.77
2018-09-23T04:09:52.002Z,100157.41
2018-09-23T04:14:55.290Z,100146.88
2018-09-23T04:19:58.569Z,100145.05
2018-09-23T04:25:01.845Z,100139.14
2018-09-23T04:30:05.503Z,100138.64
2018-09-23T04:35:08.798Z,100137.74
2018-09-23T04:40:12.319Z,100148.27
2018-09-23T04:45:15.609Z,100132.78
2018-09-23T04:50:18.882Z,100123.47
2018-09-23T04:55:22.218Z,100129.65
2018-09-23T05:00:26.626Z,100122.55
2018-09-23T05:05:29.937Z,100130.12
2018-09-23T05:10:33.226Z,100132.90
2018-09-23T05:15:36.556Z,100133.69
2018-09-23T05:20:39.847Z,100132.55
2018-09-23T05:25:43.131Z,100124.20
2018-09-23T05:30:46.470Z,100122.81
2018-09-23T05:35:49.775Z,100120.98
2018-09-23T05:40:53.057Z,100106.45
2018-09-23T05:45:56.343Z,100090.97
2018-09-23T05:50:59.630Z,100075.65
2018-09-23T05:56:02.909Z,100065.13
2018-09-23T06:01:06.202Z,100058.50
2018-09-23T06:06:09.714Z,100066.73
2018-09-23T06:11:13.068Z,100063.30
2018-09-23T06:16:16.315Z,100081.70
2018-09-23T06:21:19.722Z,100056.51
2018-09-23T06:26:23.015Z,100041.80
2018-09-23T06:31:26.299Z,100052.64
2018-09-23T06:36:29.586Z,100050.94
2018-09-23T06:41:32.867Z,100043.98
2018-09-23T06:46:36.148Z,100050.94
2018-09-23T06:51:39.438Z,100063.00
2018-09-23T06:56:42.727Z,100058.05
2018-09-23T07:01:46.027Z,100042.58
2018-09-23T07:06:49.339Z,100051.81
2018-09-23T07:11:52.806Z,100051.86
2018-09-23T07:16:56.272Z,100059.61
2018-09-23T07:21:59.731Z,100065.19
2018-09-23T07:27:03.031Z,100028.97
2018-09-23T07:32:06.350Z,100024.84
2018-09-23T07:37:09.685Z,100024.48
2018-09-23T07:42:12.951Z,100028.19
2018-09-23T07:47:16.227Z,100050.81
2018-09-23T07:52:19.619Z,100070.66
2018-09-23T07:57:23.155Z,100038.28
2018-09-23T08:02:26.457Z,100024.19
2018-09-23T08:07:29.774Z,100013.05
2018-09-23T08:12:33.196Z,100026.10
2018-09-23T08:17:36.458Z,100023.02
2018-09-23T08:22:39.742Z,100012.66
2018-09-23T08:27:43.876Z,99999.35
2018-09-23T08:32:47.195Z,99973.24
2018-09-23T08:37:50.703Z,99958.27
2018-09-23T08:42:54.045Z,99962.31
2018-09-23T08:47:57.595Z,99963.78
2018-09-23T08:53:00.876Z,99959.20
2018-09-23T08:58:04.182Z,99959.55
2018-09-23T09:03:07.503Z,99959.28
2018-09-23T09:08:10.787Z,99963.36
2018-09-23T09:13:14.091Z,99948.37
2018-09-23T09:18:17.482Z,99927.59
2018-09-23T09:23:20.702Z,99911.48
2018-09-23T09:28:23.984Z,99910.19
2018-09-23T09:33:27.282Z,99907.00
2018-09-23T09:38:30.906Z,99897.34
2018-09-23T09:43:34.165Z,99884.58
2018-09-23T09:48:37.450Z,99865.15
2018-09-23T09:53:44.040Z,99863.25
2018-09-23T09:58:47.308Z,99851.94
2018-09-23T10:03:50.637Z,99849.81
2018-09-23T10:08:53.901Z,99835.21
2018-09-23T10:13:57.183Z,99842.16
2018-09-23T10:19:00.455Z,99824.12
2018-09-23T10:24:03.736Z,99814.36
2018-09-23T10:29:07.036Z,99794.19
2018-09-23T10:34:10.420Z,99787.53
2018-09-23T10:39:13.728Z,99785.82
2018-09-23T10:44:16.998Z,99774.58
2018-09-23T10:49:20.271Z,99751.05
2018-09-23T10:54:23.547Z,99728.25
2018-09-23T10:59:26.874Z,99724.02
2018-09-23T11:04:30.145Z,99724.59
2018-09-23T11:09:33.505Z,99698.58
2018-09-23T11:14:36.781Z,99668.71
2018-09-23T11:19:40.058Z,99657.57
2018-09-23T11:24:43.390Z,99645.30
2018-09-23T11:29:46.643Z,99620.13
2018-09-23T11:34:51.027Z,99578.78
2018-09-23T11:39:55.041Z,99563.62
2018-09-23T11:44:58.334Z,99566.95
2018-09-23T11:50:01.888Z,99563.20
2018-09-23T11:55:23.614Z,99552.98
2018-09-23T12:00:26.902Z,99522.75
2018-09-23T12:05:30.190Z,99496.95
2018-09-23T12:10:33.475Z,99470.77
2018-09-23T12:15:37.123Z,99443.66
2018-09-23T12:20:40.396Z,99441.36
2018-09-23T12:25:43.794Z,99419.66
2018-09-23T12:30:47.005Z,99387.31
2018-09-23T12:35:50.287Z,99352.34
2018-09-23T12:40:53.579Z,99337.45
2018-09-23T12:45:58.346Z,99308.06
2018-09-23T12:51:01.635Z,99272.62
2018-09-23T12:56:05.654Z,99253.92
2018-09-23T13:01:08.931Z,99221.91
2018-09-23T13:06:12.206Z,99201.81
2018-09-23T13:11:15.596Z,99182.02
2018-09-23T13:16:18.871Z,99160.05
2018-09-23T13:21:22.155Z,99150.75
2018-09-23T13:26:25.476Z,99136.83
2018-09-23T13:31:28.769Z,99102.98
2018-09-23T13:36:32.063Z,99089.52
2018-09-23T13:41:35.463Z,99082.55
2018-09-23T13:46:38.832Z,99089.36
2018-09-23T13:51:42.064Z,99107.45
2018-09-23T13:56:45.342Z,99098.34
2018-09-23T14:01:48.697Z,99115.19
2018-09-23T14:06:51.982Z,99093.98
2018-09-23T14:11:55.360Z,99033.52
2018-09-23T14:16:58.694Z,99022.83
2018-09-23T14:22:01.977Z,98967.91
2018-09-23T14:27:05.263Z,98941.30
2018-09-23T14:32:08.596Z,98933.72
2018-09-23T14:37:11.876Z,98885.80
2018-09-23T14:42:15.228Z,98891.63
2018-09-23T14:47:20.016Z,98912.05
2018-09-23T14:52:23.326Z,98865.80
2018-09-23T14:57:26.619Z,98844.00
2018-09-23T15:02:29.907Z,98891.48
2018-09-23T15:07:33.208Z,98795.90
2018-09-23T15:12:36.491Z,98797.44
2018-09-23T15:17:39.783Z,98750.61
2018-09-23T15:22:43.094Z,98728.76
2018-09-23T15:27:46.386Z,98719.78
2018-09-23T15:32:49.716Z,98696.89
2018-09-23T15:37:52.999Z,98775.14
2018-09-23T15:42:56.270Z,98765.86
2018-09-23T15:47:59.545Z,98748.61
2018-09-23T15:53:02.832Z,98874.16
2018-09-23T15:58:06.306Z,98854.17
2018-09-23T16:03:09.601Z,98866.80
2018-09-23T16:08:12.886Z,98848.17
2018-09-23T16:13:16.223Z,98687.92
2018-09-23T16:18:19.581Z,98724.92
2018-09-23T16:23:22.874Z,98682.66
2018-09-23T16:28:26.211Z,98631.74
2018-09-23T16:33:29.500Z,98703.63
2018-09-23T16:38:32.814Z,98826.75
2018-09-23T16:43:36.387Z,98836.33
2018-09-23T16:48:39.685Z,98748.22
2018-09-23T16:53:42.967Z,98663.84
2018-09-23T16:58:58.548Z,98694.13
2018-09-23T17:04:01.833Z,98727.45
2018-09-23T17:09:07.730Z,98784.52
2018-09-23T17:14:11.010Z,98927.87
2018-09-23T17:19:14.868Z,98903.56
2018-09-23T17:24:19.540Z,98909.88
2018-09-23T17:29:23.996Z,98944.28
2018-09-23T17:34:29.007Z,98982.04
2018-09-23T17:39:33.963Z,98995.97
2018-09-23T17:44:37.761Z,99099.52
2018-09-23T17:49:41.712Z,99108.98
2018-09-23T17:54:45.506Z,99120.76
2018-09-23T17:59:48.843Z,99135.13
2018-09-23T18:04:52.139Z,99134.16
2018-09-23T18:09:55.502Z,99093.01
2018-09-23T18:14:58.785Z,99093.63
2018-09-23T18:20:02.111Z,99136.19
2018-09-23T18:25:05.519Z,99179.99
2018-09-23T18:30:08.843Z,99217.78
2018-09-23T18:35:12.291Z,99200.59
2018-09-23T18:40:15.582Z,99144.88
2018-09-23T18:45:18.883Z,99277.66
2018-09-23T18:50:22.188Z,99293.61
2018-09-23T18:55:31.008Z,99395.30
2018-09-23T19:00:34.316Z,99438.19
2018-09-23T19:05:37.808Z,99419.75
2018-09-23T19:10:41.441Z,99447.45
2018-09-23T19:15:44.942Z,99442.81
2018-09-23T19:20:48.275Z,99419.59
2018-09-23T19:25:51.630Z,99447.91
2018-09-23T19:30:54.924Z,99434.89
2018-09-23T19:35:58.230Z,99456.88
2018-09-23T19:41:01.532Z,99463.69
2018-09-23T19:46:05.296Z,99479.00
2018-09-23T19:51:08.595Z,99525.59
2018-09-23T19:56:11.884Z,99596.02
2018-09-23T20:01:15.178Z,99598.73
2018-09-23T20:06:18.478Z,99591.55
2018-09-23T20:11:21.779Z,99653.33
2018-09-23T20:16:25.077Z,99692.17
2018-09-23T20:21:28.387Z,99731.80
2018-09-23T20:26:31.892Z,99784.40
2018-09-23T20:31:35.326Z,99810.70
2018-09-23T20:36:38.654Z,99823.69
2018-09-23T20:41:41.959Z,99834.22
2018-09-23T20:46:45.254Z,99852.33
2018-09-23T20:51:48.567Z,99864.55
2018-09-23T20:56:51.964Z,99897.98
2018-09-23T21:01:55.315Z,99920.28
2018-09-23T21:06:58.553Z,99925.52
2018-09-23T21:12:01.830Z,99940.50
2018-09-23T21:17:05.139Z,99969.92
2018-09-23T21:22:08.471Z,99981.67
2018-09-23T21:27:11.750Z,99989.42
2018-09-23T21:32:15.119Z,99999.00
2018-09-23T21:37:18.386Z,100008.92
2018-09-23T21:42:21.674Z,100018.67
2018-09-23T21:47:24.962Z,100035.05
2018-09-23T21:52:28.235Z,100052.67
2018-09-23T21:57:31.510Z,100051.11
2018-09-23T22:02:34.787Z,100068.48
2018-09-23T22:07:38.090Z,100095.39
2018-09-23T22:12:41.375Z,100101.08
2018-09-23T22:17:44.687Z,100112.88
2018-09-23T22:22:48.216Z,100123.37
2018-09-23T22:27:52.166Z,100142.43
2018-09-23T22:32:55.559Z,100144.26
2018-09-23T22:37:59.055Z,100145.83
2018-09-23T22:43:02.439Z,100149.83
2018-09-23T22:48:05.763Z,100165.16
2018-09-23T22:53:09.063Z,100169.34
2018-09-23T22:58:12.396Z,100166.37
2018-09-23T23:03:15.671Z,100187.27
2018-09-23T23:08:18.951Z,100188.48
2018-09-23T23:13:22.239Z,100205.81
2018-09-23T23:18:25.526Z,100215.12
2018-09-23T23:23:28.805Z,100233.06
2018-09-23T23:28:32.111Z,100234.45
2018-09-23T23:33:35.386Z,100242.43
2018-09-23T23:38:38.682Z,100261.93
2018-09-23T23:43:42.061Z,100273.07
2018-09-23T23:48:45.342Z,100301.11
2018-09-23T23:53:48.619Z,100321.83
2018-09-23T23:58:51.926Z,100332.36
